sensor_id;sensor_type;location;lat;lon;timestamp;temperature;humidity
24800;DHT22;12897;50.812;4.430;2023-05-07T00:01:14;17.10;99.90
24800;DHT22;12897;50.812;4.430;2023-05-07T00:03:42;17.20;99.90
24800;DHT22;12897;50.812;4.430;2023-05-07T00:06:09;17.00;99.90
24800;DHT22;12897;50.812;4.430;2023-05-07T00:08:39;17.00;99.90
24800;DHT22;12897;50.812;4.430;2023-05-07T00:11:08;17.00;99.90
24800;DHT22;12897;50.812;4.430;2023-05-07T00:13:36;16.90;99.90
24800;DHT22;12897;50.812;4.430;2023-05-07T00:16:03;16.80;99.90
24800;DHT22;12897;50.812;4.430;2023-05-07T00:18:32;16.90;99.90
24800;DHT22;12897;50.812;4.430;2023-05-07T00:21:00;17.00;99.90
24800;DHT22;12897;50.812;4.430;2023-05-07T00:23:27;17.00;99.90
24800;DHT22;12897;50.812;4.430;2023-05-07T00:25:55;17.00;99.90
24800;DHT22;12897;50.812;4.430;2023-05-07T00:28:23;16.90;99.90
24800;DHT22;12897;50.812;4.430;2023-05-07T00:30:50;17.00;99.90
24800;DHT22;12897;50.812;4.430;2023-05-07T00:33:18;16.90;99.90
24800;DHT22;12897;50.812;4.430;2023-05-07T00:35:47;17.00;99.90
24800;DHT22;12897;50.812;4.430;2023-05-07T00:38:15;16.90;99.90
24800;DHT22;12897;50.812;4.430;2023-05-07T00:40:42;16.90;99.90
24800;DHT22;12897;50.812;4.430;2023-05-07T00:43:12;16.80;99.90
24800;DHT22;12897;50.812;4.430;2023-05-07T00:45:39;16.80;99.90
24800;DHT22;12897;50.812;4.430;2023-05-07T00:48:08;16.70;99.90
24800;DHT22;12897;50.812;4.430;2023-05-07T00:50:37;16.90;99.90
24800;DHT22;12897;50.812;4.430;2023-05-07T00:53:04;16.90;99.90
24800;DHT22;12897;50.812;4.430;2023-05-07T00:55:32;16.90;99.90
24800;DHT22;12897;50.812;4.430;2023-05-07T00:58:01;17.00;99.90
24800;DHT22;12897;50.812;4.430;2023-05-07T01:00:40;17.00;99.90
24800;DHT22;12897;50.812;4.430;2023-05-07T01:03:08;17.10;99.90
24800;DHT22;12897;50.812;4.430;2023-05-07T01:05:36;17.10;99.90
24800;DHT22;12897;50.812;4.430;2023-05-07T01:08:04;17.20;99.90
24800;DHT22;12897;50.812;4.430;2023-05-07T01:10:32;17.00;99.90
24800;DHT22;12897;50.812;4.430;2023-05-07T01:13:00;16.80;99.90
24800;DHT22;12897;50.812;4.430;2023-05-07T01:15:28;16.80;99.90
24800;DHT22;12897;50.812;4.430;2023-05-07T01:17:56;16.70;99.90
24800;DHT22;12897;50.812;4.430;2023-05-07T01:20:23;16.70;99.90
24800;DHT22;12897;50.812;4.430;2023-05-07T01:22:51;16.70;99.90
24800;DHT22;12897;50.812;4.430;2023-05-07T01:25:19;16.70;99.90
24800;DHT22;12897;50.812;4.430;2023-05-07T01:27:49;16.80;99.90
24800;DHT22;12897;50.812;4.430;2023-05-07T01:30:18;16.80;99.90
24800;DHT22;12897;50.812;4.430;2023-05-07T01:32:51;16.80;99.90
24800;DHT22;12897;50.812;4.430;2023-05-07T01:35:19;16.70;99.90
24800;DHT22;12897;50.812;4.430;2023-05-07T01:37:49;16.80;99.90
24800;DHT22;12897;50.812;4.430;2023-05-07T01:40:19;16.80;99.90
24800;DHT22;12897;50.812;4.430;2023-05-07T01:42:47;16.70;99.90
24800;DHT22;12897;50.812;4.430;2023-05-07T01:45:15;16.80;99.90
24800;DHT22;12897;50.812;4.430;2023-05-07T01:47:43;16.80;99.90
24800;DHT22;12897;50.812;4.430;2023-05-07T01:50:11;16.70;99.90
24800;DHT22;12897;50.812;4.430;2023-05-07T01:52:39;16.60;99.90
24800;DHT22;12897;50.812;4.430;2023-05-07T01:55:07;16.60;99.90
24800;DHT22;12897;50.812;4.430;2023-05-07T01:57:35;16.60;99.90
24800;DHT22;12897;50.812;4.430;2023-05-07T02:00:02;16.60;99.90
24800;DHT22;12897;50.812;4.430;2023-05-07T02:02:32;16.50;99.90
24800;DHT22;12897;50.812;4.430;2023-05-07T02:05:00;16.50;99.90
24800;DHT22;12897;50.812;4.430;2023-05-07T02:07:28;16.50;99.90
24800;DHT22;12897;50.812;4.430;2023-05-07T02:09:56;16.60;99.90
24800;DHT22;12897;50.812;4.430;2023-05-07T02:12:24;16.70;99.90
24800;DHT22;12897;50.812;4.430;2023-05-07T02:14:51;16.70;99.90
24800;DHT22;12897;50.812;4.430;2023-05-07T02:17:19;16.60;99.90
24800;DHT22;12897;50.812;4.430;2023-05-07T02:19:48;16.70;99.90
24800;DHT22;12897;50.812;4.430;2023-05-07T02:22:15;16.70;99.90
24800;DHT22;12897;50.812;4.430;2023-05-07T02:24:43;16.60;99.90
24800;DHT22;12897;50.812;4.430;2023-05-07T02:27:10;16.60;99.90
24800;DHT22;12897;50.812;4.430;2023-05-07T02:29:44;16.40;99.90
24800;DHT22;12897;50.812;4.430;2023-05-07T02:32:11;16.40;99.90
24800;DHT22;12897;50.812;4.430;2023-05-07T02:34:39;16.30;99.90
24800;DHT22;12897;50.812;4.430;2023-05-07T02:37:06;16.20;99.90
24800;DHT22;12897;50.812;4.430;2023-05-07T02:39:34;16.20;99.90
24800;DHT22;12897;50.812;4.430;2023-05-07T02:42:01;16.10;99.90
24800;DHT22;12897;50.812;4.430;2023-05-07T02:44:29;16.10;99.90
24800;DHT22;12897;50.812;4.430;2023-05-07T02:46:57;16.20;99.90
24800;DHT22;12897;50.812;4.430;2023-05-07T02:49:25;16.20;99.90
24800;DHT22;12897;50.812;4.430;2023-05-07T02:51:54;16.10;99.90
24800;DHT22;12897;50.812;4.430;2023-05-07T02:54:22;16.20;99.90
24800;DHT22;12897;50.812;4.430;2023-05-07T02:56:49;16.10;99.90
24800;DHT22;12897;50.812;4.430;2023-05-07T02:59:17;16.10;99.90
24800;DHT22;12897;50.812;4.430;2023-05-07T03:01:51;16.10;99.90
24800;DHT22;12897;50.812;4.430;2023-05-07T03:04:18;16.10;99.90
24800;DHT22;12897;50.812;4.430;2023-05-07T03:06:46;16.20;99.90
24800;DHT22;12897;50.812;4.430;2023-05-07T03:09:14;16.20;99.90
24800;DHT22;12897;50.812;4.430;2023-05-07T03:11:43;16.20;99.90
24800;DHT22;12897;50.812;4.430;2023-05-07T03:14:10;16.20;99.90
24800;DHT22;12897;50.812;4.430;2023-05-07T03:16:38;16.20;99.90
24800;DHT22;12897;50.812;4.430;2023-05-07T03:19:06;16.30;99.90
24800;DHT22;12897;50.812;4.430;2023-05-07T03:21:34;16.40;99.90
24800;DHT22;12897;50.812;4.430;2023-05-07T03:24:01;16.30;99.90
24800;DHT22;12897;50.812;4.430;2023-05-07T03:26:29;16.30;99.90
24800;DHT22;12897;50.812;4.430;2023-05-07T03:28:56;16.30;99.90
24800;DHT22;12897;50.812;4.430;2023-05-07T03:31:24;16.30;99.90
24800;DHT22;12897;50.812;4.430;2023-05-07T03:33:53;16.30;99.90
24800;DHT22;12897;50.812;4.430;2023-05-07T03:36:21;16.30;99.90
24800;DHT22;12897;50.812;4.430;2023-05-07T03:38:49;16.30;99.90
24800;DHT22;12897;50.812;4.430;2023-05-07T03:41:32;16.30;99.90
24800;DHT22;12897;50.812;4.430;2023-05-07T03:44:00;16.30;99.90
24800;DHT22;12897;50.812;4.430;2023-05-07T03:46:28;16.30;99.90
24800;DHT22;12897;50.812;4.430;2023-05-07T03:48:56;16.30;99.90
24800;DHT22;12897;50.812;4.430;2023-05-07T03:51:24;16.30;99.90
24800;DHT22;12897;50.812;4.430;2023-05-07T03:53:52;16.40;99.90
24800;DHT22;12897;50.812;4.430;2023-05-07T03:56:20;16.30;99.90
24800;DHT22;12897;50.812;4.430;2023-05-07T03:58:47;16.30;99.90
24800;DHT22;12897;50.812;4.430;2023-05-07T04:01:16;16.40;99.90
24800;DHT22;12897;50.812;4.430;2023-05-07T04:03:44;16.30;99.90
24800;DHT22;12897;50.812;4.430;2023-05-07T04:06:12;16.20;99.90
24800;DHT22;12897;50.812;4.430;2023-05-07T04:08:39;16.40;99.90
24800;DHT22;12897;50.812;4.430;2023-05-07T04:11:07;16.40;99.90
24800;DHT22;12897;50.812;4.430;2023-05-07T04:13:35;16.40;99.90
24800;DHT22;12897;50.812;4.430;2023-05-07T04:16:04;16.40;99.90
24800;DHT22;12897;50.812;4.430;2023-05-07T04:18:32;16.40;99.90
24800;DHT22;12897;50.812;4.430;2023-05-07T04:21:01;16.40;99.90
24800;DHT22;12897;50.812;4.430;2023-05-07T04:23:28;16.30;99.90
24800;DHT22;12897;50.812;4.430;2023-05-07T04:25:56;16.30;99.90
24800;DHT22;12897;50.812;4.430;2023-05-07T04:28:24;16.40;99.90
24800;DHT22;12897;50.812;4.430;2023-05-07T04:30:52;16.30;99.90
24800;DHT22;12897;50.812;4.430;2023-05-07T04:33:19;16.40;99.90
24800;DHT22;12897;50.812;4.430;2023-05-07T04:35:47;16.40;99.90
24800;DHT22;12897;50.812;4.430;2023-05-07T04:38:15;16.30;99.90
24800;DHT22;12897;50.812;4.430;2023-05-07T04:40:43;16.30;99.90
24800;DHT22;12897;50.812;4.430;2023-05-07T04:43:10;16.30;99.90
24800;DHT22;12897;50.812;4.430;2023-05-07T04:45:38;16.30;99.90
24800;DHT22;12897;50.812;4.430;2023-05-07T04:48:09;16.40;99.90
24800;DHT22;12897;50.812;4.430;2023-05-07T04:50:37;16.50;99.90
24800;DHT22;12897;50.812;4.430;2023-05-07T04:53:04;16.50;99.90
24800;DHT22;12897;50.812;4.430;2023-05-07T04:55:32;16.60;99.90
24800;DHT22;12897;50.812;4.430;2023-05-07T04:58:00;16.50;99.90
24800;DHT22;12897;50.812;4.430;2023-05-07T05:00:28;16.60;99.90
24800;DHT22;12897;50.812;4.430;2023-05-07T05:02:57;16.60;99.90
24800;DHT22;12897;50.812;4.430;2023-05-07T05:05:25;16.50;99.90
24800;DHT22;12897;50.812;4.430;2023-05-07T05:07:52;16.60;99.90
24800;DHT22;12897;50.812;4.430;2023-05-07T05:10:20;16.60;99.90
24800;DHT22;12897;50.812;4.430;2023-05-07T05:12:48;16.60;99.90
24800;DHT22;12897;50.812;4.430;2023-05-07T05:15:16;16.70;99.90
24800;DHT22;12897;50.812;4.430;2023-05-07T05:17:43;16.80;99.90
24800;DHT22;12897;50.812;4.430;2023-05-07T05:20:11;16.90;99.90
24800;DHT22;12897;50.812;4.430;2023-05-07T05:22:39;16.90;99.90
24800;DHT22;12897;50.812;4.430;2023-05-07T05:25:07;17.00;99.90
24800;DHT22;12897;50.812;4.430;2023-05-07T05:27:35;17.10;99.90
24800;DHT22;12897;50.812;4.430;2023-05-07T05:30:03;17.20;99.90
24800;DHT22;12897;50.812;4.430;2023-05-07T05:32:32;17.20;99.90
24800;DHT22;12897;50.812;4.430;2023-05-07T05:35:00;17.20;99.90
24800;DHT22;12897;50.812;4.430;2023-05-07T05:37:32;17.20;99.90
24800;DHT22;12897;50.812;4.430;2023-05-07T05:40:00;17.30;99.90
24800;DHT22;12897;50.812;4.430;2023-05-07T05:42:29;17.30;99.90
24800;DHT22;12897;50.812;4.430;2023-05-07T05:44:57;17.30;99.90
24800;DHT22;12897;50.812;4.430;2023-05-07T05:47:24;17.40;99.90
24800;DHT22;12897;50.812;4.430;2023-05-07T05:49:52;17.40;99.90
24800;DHT22;12897;50.812;4.430;2023-05-07T05:52:20;17.40;99.90
24800;DHT22;12897;50.812;4.430;2023-05-07T05:54:49;17.40;99.90
24800;DHT22;12897;50.812;4.430;2023-05-07T05:57:17;17.40;99.90
24800;DHT22;12897;50.812;4.430;2023-05-07T05:59:44;17.50;99.90
24800;DHT22;12897;50.812;4.430;2023-05-07T06:02:13;17.40;99.90
24800;DHT22;12897;50.812;4.430;2023-05-07T06:04:41;17.30;99.90
24800;DHT22;12897;50.812;4.430;2023-05-07T06:07:13;17.40;99.90
24800;DHT22;12897;50.812;4.430;2023-05-07T06:09:38;17.40;99.90
24800;DHT22;12897;50.812;4.430;2023-05-07T06:12:05;17.20;99.90
24800;DHT22;12897;50.812;4.430;2023-05-07T06:14:33;17.40;99.90
24800;DHT22;12897;50.812;4.430;2023-05-07T06:17:01;17.40;99.90
24800;DHT22;12897;50.812;4.430;2023-05-07T06:19:28;17.40;99.90
24800;DHT22;12897;50.812;4.430;2023-05-07T06:21:56;17.40;99.90
24800;DHT22;12897;50.812;4.430;2023-05-07T06:24:24;17.40;99.90
24800;DHT22;12897;50.812;4.430;2023-05-07T06:26:52;17.40;99.90
24800;DHT22;12897;50.812;4.430;2023-05-07T06:29:19;17.30;99.90
24800;DHT22;12897;50.812;4.430;2023-05-07T06:31:47;17.20;99.90
24800;DHT22;12897;50.812;4.430;2023-05-07T06:34:14;17.20;99.90
24800;DHT22;12897;50.812;4.430;2023-05-07T06:36:42;17.40;99.90
24800;DHT22;12897;50.812;4.430;2023-05-07T06:39:09;17.40;99.90
24800;DHT22;12897;50.812;4.430;2023-05-07T06:41:39;17.40;99.90
24800;DHT22;12897;50.812;4.430;2023-05-07T06:44:06;17.30;99.90
24800;DHT22;12897;50.812;4.430;2023-05-07T06:46:34;17.20;99.90
24800;DHT22;12897;50.812;4.430;2023-05-07T06:49:02;17.40;99.90
24800;DHT22;12897;50.812;4.430;2023-05-07T06:51:29;17.40;99.90
24800;DHT22;12897;50.812;4.430;2023-05-07T06:53:57;17.40;99.90
24800;DHT22;12897;50.812;4.430;2023-05-07T06:56:24;17.40;99.90
24800;DHT22;12897;50.812;4.430;2023-05-07T06:58:52;17.30;99.90
24800;DHT22;12897;50.812;4.430;2023-05-07T07:01:19;17.20;99.90
24800;DHT22;12897;50.812;4.430;2023-05-07T07:03:47;17.20;99.90
24800;DHT22;12897;50.812;4.430;2023-05-07T07:06:15;17.20;99.90
24800;DHT22;12897;50.812;4.430;2023-05-07T07:08:42;17.10;99.90
24800;DHT22;12897;50.812;4.430;2023-05-07T07:11:10;17.20;99.90
24800;DHT22;12897;50.812;4.430;2023-05-07T07:13:38;17.30;99.90
24800;DHT22;12897;50.812;4.430;2023-05-07T07:16:06;17.40;99.90
24800;DHT22;12897;50.812;4.430;2023-05-07T07:18:34;17.20;99.90
24800;DHT22;12897;50.812;4.430;2023-05-07T07:21:05;17.20;99.90
24800;DHT22;12897;50.812;4.430;2023-05-07T07:23:32;17.20;99.90
24800;DHT22;12897;50.812;4.430;2023-05-07T07:26:00;17.00;99.90
24800;DHT22;12897;50.812;4.430;2023-05-07T07:28:29;16.90;99.90
24800;DHT22;12897;50.812;4.430;2023-05-07T07:30:56;16.80;99.90
24800;DHT22;12897;50.812;4.430;2023-05-07T07:33:26;16.90;99.90
24800;DHT22;12897;50.812;4.430;2023-05-07T07:35:55;16.90;99.90
24800;DHT22;12897;50.812;4.430;2023-05-07T07:38:22;17.00;99.90
24800;DHT22;12897;50.812;4.430;2023-05-07T07:40:50;17.20;99.90
24800;DHT22;12897;50.812;4.430;2023-05-07T07:43:18;17.30;99.90
24800;DHT22;12897;50.812;4.430;2023-05-07T07:45:46;17.40;99.90
24800;DHT22;12897;50.812;4.430;2023-05-07T07:48:16;17.50;99.90
24800;DHT22;12897;50.812;4.430;2023-05-07T07:50:43;17.60;99.90
24800;DHT22;12897;50.812;4.430;2023-05-07T07:53:12;17.70;99.90
24800;DHT22;12897;50.812;4.430;2023-05-07T07:55:40;17.70;99.90
24800;DHT22;12897;50.812;4.430;2023-05-07T07:58:07;17.80;99.90
24800;DHT22;12897;50.812;4.430;2023-05-07T08:00:35;17.70;99.90
24800;DHT22;12897;50.812;4.430;2023-05-07T08:03:04;17.70;99.90
24800;DHT22;12897;50.812;4.430;2023-05-07T08:05:35;17.90;99.90
24800;DHT22;12897;50.812;4.430;2023-05-07T08:08:04;17.90;99.90
24800;DHT22;12897;50.812;4.430;2023-05-07T08:10:32;17.90;99.90
24800;DHT22;12897;50.812;4.430;2023-05-07T08:13:02;17.90;99.90
24800;DHT22;12897;50.812;4.430;2023-05-07T08:15:34;18.00;99.90
24800;DHT22;12897;50.812;4.430;2023-05-07T08:18:01;17.90;99.90
24800;DHT22;12897;50.812;4.430;2023-05-07T08:20:29;18.00;99.90
24800;DHT22;12897;50.812;4.430;2023-05-07T08:22:57;18.10;99.90
24800;DHT22;12897;50.812;4.430;2023-05-07T08:25:25;18.10;99.90
24800;DHT22;12897;50.812;4.430;2023-05-07T08:27:53;17.90;99.90
24800;DHT22;12897;50.812;4.430;2023-05-07T08:30:21;17.90;99.90
24800;DHT22;12897;50.812;4.430;2023-05-07T08:32:49;18.00;99.90
24800;DHT22;12897;50.812;4.430;2023-05-07T08:35:16;18.10;99.90
24800;DHT22;12897;50.812;4.430;2023-05-07T08:37:44;18.20;99.90
24800;DHT22;12897;50.812;4.430;2023-05-07T08:40:12;18.20;99.90
24800;DHT22;12897;50.812;4.430;2023-05-07T08:42:40;18.20;99.90
24800;DHT22;12897;50.812;4.430;2023-05-07T08:45:10;18.20;99.90
24800;DHT22;12897;50.812;4.430;2023-05-07T08:47:46;18.40;99.90
24800;DHT22;12897;50.812;4.430;2023-05-07T08:50:14;18.40;99.90
24800;DHT22;12897;50.812;4.430;2023-05-07T08:52:42;18.50;99.90
24800;DHT22;12897;50.812;4.430;2023-05-07T08:55:10;18.70;99.90
24800;DHT22;12897;50.812;4.430;2023-05-07T08:57:39;18.90;99.90
24800;DHT22;12897;50.812;4.430;2023-05-07T09:00:07;18.90;99.90
24800;DHT22;12897;50.812;4.430;2023-05-07T09:02:36;18.90;99.90
24800;DHT22;12897;50.812;4.430;2023-05-07T09:05:04;19.00;99.90
24800;DHT22;12897;50.812;4.430;2023-05-07T09:07:32;18.90;99.90
24800;DHT22;12897;50.812;4.430;2023-05-07T09:10:06;18.90;99.90
24800;DHT22;12897;50.812;4.430;2023-05-07T09:12:31;19.00;99.90
24800;DHT22;12897;50.812;4.430;2023-05-07T09:14:59;19.00;99.90
24800;DHT22;12897;50.812;4.430;2023-05-07T09:17:27;18.90;99.90
24800;DHT22;12897;50.812;4.430;2023-05-07T09:19:55;18.90;99.90
24800;DHT22;12897;50.812;4.430;2023-05-07T09:22:23;18.90;99.90
24800;DHT22;12897;50.812;4.430;2023-05-07T09:24:51;18.90;99.90
24800;DHT22;12897;50.812;4.430;2023-05-07T09:27:19;18.90;99.90
24800;DHT22;12897;50.812;4.430;2023-05-07T09:29:46;19.00;99.90
24800;DHT22;12897;50.812;4.430;2023-05-07T09:32:15;19.10;99.90
24800;DHT22;12897;50.812;4.430;2023-05-07T09:34:42;19.20;99.90
24800;DHT22;12897;50.812;4.430;2023-05-07T09:37:12;19.30;99.90
24800;DHT22;12897;50.812;4.430;2023-05-07T09:39:42;19.40;99.90
24800;DHT22;12897;50.812;4.430;2023-05-07T09:42:12;19.40;99.90
24800;DHT22;12897;50.812;4.430;2023-05-07T09:44:43;19.40;99.90
24800;DHT22;12897;50.812;4.430;2023-05-07T09:47:15;19.40;99.90
24800;DHT22;12897;50.812;4.430;2023-05-07T09:49:46;19.50;99.90
24800;DHT22;12897;50.812;4.430;2023-05-07T09:52:21;19.60;99.90
24800;DHT22;12897;50.812;4.430;2023-05-07T09:54:47;19.70;99.90
24800;DHT22;12897;50.812;4.430;2023-05-07T09:57:17;19.70;99.90
24800;DHT22;12897;50.812;4.430;2023-05-07T09:59:49;19.70;99.90
24800;DHT22;12897;50.812;4.430;2023-05-07T10:02:18;19.80;99.90
24800;DHT22;12897;50.812;4.430;2023-05-07T10:04:48;19.70;99.90
24800;DHT22;12897;50.812;4.430;2023-05-07T10:07:17;19.70;99.90
24800;DHT22;12897;50.812;4.430;2023-05-07T10:09:45;19.80;99.90
24800;DHT22;12897;50.812;4.430;2023-05-07T10:12:13;19.80;99.90
24800;DHT22;12897;50.812;4.430;2023-05-07T10:14:41;19.90;99.90
24800;DHT22;12897;50.812;4.430;2023-05-07T10:17:09;19.80;99.90
24800;DHT22;12897;50.812;4.430;2023-05-07T10:19:38;19.90;99.90
24800;DHT22;12897;50.812;4.430;2023-05-07T10:22:08;19.90;99.90
24800;DHT22;12897;50.812;4.430;2023-05-07T10:24:37;19.90;99.90
24800;DHT22;12897;50.812;4.430;2023-05-07T10:27:12;19.90;99.90
24800;DHT22;12897;50.812;4.430;2023-05-07T10:34:59;20.00;99.90
24800;DHT22;12897;50.812;4.430;2023-05-07T10:37:29;19.90;99.90
24800;DHT22;12897;50.812;4.430;2023-05-07T10:39:58;20.00;99.90
24800;DHT22;12897;50.812;4.430;2023-05-07T10:42:26;19.90;99.90
24800;DHT22;12897;50.812;4.430;2023-05-07T10:44:54;19.80;99.90
24800;DHT22;12897;50.812;4.430;2023-05-07T10:47:22;19.70;99.90
24800;DHT22;12897;50.812;4.430;2023-05-07T10:52:22;20.00;99.90
24800;DHT22;12897;50.812;4.430;2023-05-07T10:57:46;20.10;99.90
24800;DHT22;12897;50.812;4.430;2023-05-07T11:03:04;20.20;99.90
24800;DHT22;12897;50.812;4.430;2023-05-07T11:05:33;20.30;99.90
24800;DHT22;12897;50.812;4.430;2023-05-07T11:08:02;20.30;99.90
24800;DHT22;12897;50.812;4.430;2023-05-07T11:10:52;20.30;99.90
24800;DHT22;12897;50.812;4.430;2023-05-07T11:13:46;20.40;99.90
24800;DHT22;12897;50.812;4.430;2023-05-07T11:16:20;20.50;99.90
24800;DHT22;12897;50.812;4.430;2023-05-07T11:18:51;20.50;99.90
24800;DHT22;12897;50.812;4.430;2023-05-07T11:21:35;20.60;99.90
24800;DHT22;12897;50.812;4.430;2023-05-07T11:24:04;20.60;99.90
24800;DHT22;12897;50.812;4.430;2023-05-07T11:29:19;20.60;99.90
24800;DHT22;12897;50.812;4.430;2023-05-07T11:31:55;20.70;99.90
24800;DHT22;12897;50.812;4.430;2023-05-07T11:34:25;20.70;99.90
24800;DHT22;12897;50.812;4.430;2023-05-07T11:36:54;20.70;99.90
24800;DHT22;12897;50.812;4.430;2023-05-07T11:39:28;20.80;99.90
24800;DHT22;12897;50.812;4.430;2023-05-07T11:41:56;21.00;99.90
24800;DHT22;12897;50.812;4.430;2023-05-07T11:44:24;21.00;99.90
24800;DHT22;12897;50.812;4.430;2023-05-07T11:46:52;21.00;99.90
24800;DHT22;12897;50.812;4.430;2023-05-07T11:49:19;21.20;99.90
24800;DHT22;12897;50.812;4.430;2023-05-07T11:51:47;21.30;99.90
24800;DHT22;12897;50.812;4.430;2023-05-07T11:54:16;21.50;99.90
24800;DHT22;12897;50.812;4.430;2023-05-07T11:56:44;21.50;99.90
24800;DHT22;12897;50.812;4.430;2023-05-07T11:59:16;21.40;99.90
24800;DHT22;12897;50.812;4.430;2023-05-07T12:01:45;21.50;99.90
24800;DHT22;12897;50.812;4.430;2023-05-07T12:04:12;21.70;99.90
24800;DHT22;12897;50.812;4.430;2023-05-07T12:06:39;21.70;99.90
24800;DHT22;12897;50.812;4.430;2023-05-07T12:09:07;21.80;99.90
24800;DHT22;12897;50.812;4.430;2023-05-07T12:11:36;21.70;99.90
24800;DHT22;12897;50.812;4.430;2023-05-07T12:14:05;22.00;99.90
24800;DHT22;12897;50.812;4.430;2023-05-07T12:16:36;22.10;99.90
24800;DHT22;12897;50.812;4.430;2023-05-07T12:19:03;22.00;99.90
24800;DHT22;12897;50.812;4.430;2023-05-07T12:21:34;21.90;99.90
24800;DHT22;12897;50.812;4.430;2023-05-07T12:24:03;21.70;99.90
24800;DHT22;12897;50.812;4.430;2023-05-07T12:26:30;21.70;99.90
24800;DHT22;12897;50.812;4.430;2023-05-07T12:28:58;21.90;99.90
24800;DHT22;12897;50.812;4.430;2023-05-07T12:31:26;22.00;99.90
24800;DHT22;12897;50.812;4.430;2023-05-07T12:33:54;22.10;99.90
24800;DHT22;12897;50.812;4.430;2023-05-07T12:36:21;22.00;99.90
24800;DHT22;12897;50.812;4.430;2023-05-07T12:38:52;22.10;99.90
24800;DHT22;12897;50.812;4.430;2023-05-07T12:41:23;21.90;99.90
24800;DHT22;12897;50.812;4.430;2023-05-07T12:43:56;21.80;99.90
24800;DHT22;12897;50.812;4.430;2023-05-07T12:46:24;21.80;99.90
24800;DHT22;12897;50.812;4.430;2023-05-07T12:48:52;21.70;99.90
24800;DHT22;12897;50.812;4.430;2023-05-07T12:51:21;21.70;99.90
24800;DHT22;12897;50.812;4.430;2023-05-07T12:53:49;21.80;99.90
24800;DHT22;12897;50.812;4.430;2023-05-07T12:56:17;21.80;99.90
24800;DHT22;12897;50.812;4.430;2023-05-07T12:58:44;21.70;99.90
24800;DHT22;12897;50.812;4.430;2023-05-07T13:01:13;21.60;99.90
24800;DHT22;12897;50.812;4.430;2023-05-07T13:03:42;21.60;99.90
24800;DHT22;12897;50.812;4.430;2023-05-07T13:06:11;21.70;99.90
24800;DHT22;12897;50.812;4.430;2023-05-07T13:08:40;21.70;99.90
24800;DHT22;12897;50.812;4.430;2023-05-07T13:11:16;21.80;99.90
24800;DHT22;12897;50.812;4.430;2023-05-07T13:13:43;21.90;99.90
24800;DHT22;12897;50.812;4.430;2023-05-07T13:16:11;21.70;99.90
24800;DHT22;12897;50.812;4.430;2023-05-07T13:18:39;21.80;99.90
24800;DHT22;12897;50.812;4.430;2023-05-07T13:21:09;22.00;99.90
24800;DHT22;12897;50.812;4.430;2023-05-07T13:23:41;22.00;99.90
24800;DHT22;12897;50.812;4.430;2023-05-07T13:26:09;21.70;99.90
24800;DHT22;12897;50.812;4.430;2023-05-07T13:28:37;21.80;99.90
24800;DHT22;12897;50.812;4.430;2023-05-07T13:31:04;22.00;99.90
24800;DHT22;12897;50.812;4.430;2023-05-07T13:33:32;22.10;99.90
24800;DHT22;12897;50.812;4.430;2023-05-07T13:35:59;22.20;99.90
24800;DHT22;12897;50.812;4.430;2023-05-07T13:38:27;21.80;99.90
24800;DHT22;12897;50.812;4.430;2023-05-07T13:40:55;21.50;99.90
24800;DHT22;12897;50.812;4.430;2023-05-07T13:43:23;21.40;99.90
24800;DHT22;12897;50.812;4.430;2023-05-07T13:45:50;21.40;99.90
24800;DHT22;12897;50.812;4.430;2023-05-07T13:48:18;21.10;99.90
24800;DHT22;12897;50.812;4.430;2023-05-07T13:50:45;21.00;99.90
24800;DHT22;12897;50.812;4.430;2023-05-07T13:53:13;21.00;99.90
24800;DHT22;12897;50.812;4.430;2023-05-07T13:55:44;21.00;99.90
24800;DHT22;12897;50.812;4.430;2023-05-07T13:58:11;21.00;99.90
24800;DHT22;12897;50.812;4.430;2023-05-07T14:00:39;21.00;99.90
24800;DHT22;12897;50.812;4.430;2023-05-07T14:03:06;21.00;99.90
24800;DHT22;12897;50.812;4.430;2023-05-07T14:05:34;21.20;99.90
24800;DHT22;12897;50.812;4.430;2023-05-07T14:08:02;21.10;99.90
24800;DHT22;12897;50.812;4.430;2023-05-07T14:10:32;21.30;99.90
24800;DHT22;12897;50.812;4.430;2023-05-07T14:13:01;21.20;99.90
24800;DHT22;12897;50.812;4.430;2023-05-07T14:15:29;21.30;99.90
24800;DHT22;12897;50.812;4.430;2023-05-07T14:17:56;21.10;99.90
24800;DHT22;12897;50.812;4.430;2023-05-07T14:20:25;21.00;99.90
24800;DHT22;12897;50.812;4.430;2023-05-07T14:22:53;20.90;99.90
24800;DHT22;12897;50.812;4.430;2023-05-07T14:25:20;20.70;99.90
24800;DHT22;12897;50.812;4.430;2023-05-07T14:27:48;20.70;99.90
24800;DHT22;12897;50.812;4.430;2023-05-07T14:30:16;20.60;99.90
24800;DHT22;12897;50.812;4.430;2023-05-07T14:32:44;20.60;99.90
24800;DHT22;12897;50.812;4.430;2023-05-07T14:35:11;20.60;99.90
24800;DHT22;12897;50.812;4.430;2023-05-07T14:37:39;20.70;99.90
24800;DHT22;12897;50.812;4.430;2023-05-07T14:40:09;20.70;99.90
24800;DHT22;12897;50.812;4.430;2023-05-07T14:42:37;20.90;99.90
24800;DHT22;12897;50.812;4.430;2023-05-07T14:45:05;21.10;99.90
24800;DHT22;12897;50.812;4.430;2023-05-07T14:47:34;21.00;99.90
24800;DHT22;12897;50.812;4.430;2023-05-07T14:50:02;21.00;99.90
24800;DHT22;12897;50.812;4.430;2023-05-07T14:52:30;21.00;99.90
24800;DHT22;12897;50.812;4.430;2023-05-07T14:54:57;20.90;99.90
24800;DHT22;12897;50.812;4.430;2023-05-07T14:57:25;21.00;99.90
24800;DHT22;12897;50.812;4.430;2023-05-07T14:59:53;21.10;99.90
24800;DHT22;12897;50.812;4.430;2023-05-07T15:02:21;21.10;99.90
24800;DHT22;12897;50.812;4.430;2023-05-07T15:04:48;21.10;99.90
24800;DHT22;12897;50.812;4.430;2023-05-07T15:07:16;21.00;99.90
24800;DHT22;12897;50.812;4.430;2023-05-07T15:09:44;20.80;99.90
24800;DHT22;12897;50.812;4.430;2023-05-07T15:12:11;20.80;99.90
24800;DHT22;12897;50.812;4.430;2023-05-07T15:14:40;20.80;99.90
24800;DHT22;12897;50.812;4.430;2023-05-07T15:17:09;20.70;99.90
24800;DHT22;12897;50.812;4.430;2023-05-07T15:19:36;20.80;99.90
24800;DHT22;12897;50.812;4.430;2023-05-07T15:22:05;20.60;99.90
24800;DHT22;12897;50.812;4.430;2023-05-07T15:24:32;20.60;99.90
24800;DHT22;12897;50.812;4.430;2023-05-07T15:27:00;20.50;99.90
24800;DHT22;12897;50.812;4.430;2023-05-07T15:29:30;20.60;99.90
24800;DHT22;12897;50.812;4.430;2023-05-07T15:31:58;20.20;99.90
24800;DHT22;12897;50.812;4.430;2023-05-07T15:34:25;20.20;99.90
24800;DHT22;12897;50.812;4.430;2023-05-07T15:36:55;19.90;99.90
24800;DHT22;12897;50.812;4.430;2023-05-07T15:39:23;19.80;99.90
24800;DHT22;12897;50.812;4.430;2023-05-07T15:41:50;19.90;99.90
24800;DHT22;12897;50.812;4.430;2023-05-07T15:44:19;20.10;99.90
24800;DHT22;12897;50.812;4.430;2023-05-07T15:46:47;20.20;99.90
24800;DHT22;12897;50.812;4.430;2023-05-07T15:49:15;20.30;99.90
24800;DHT22;12897;50.812;4.430;2023-05-07T15:51:43;20.20;99.90
24800;DHT22;12897;50.812;4.430;2023-05-07T15:54:10;20.20;99.90